Time;durP1;ratioP1;P1;durP2;ratioP2;P2;SDS_P1;SDS_P2;PMS_P1;PMS_P2;Temp;Humidity;BMP_temperature;BMP_pressure;BME280_temperature;BME280_humidity;BME280_pressure;Samples;Min_cycle;Max_cycle;Signal;HPM_P1;HPM_P2
2021/03/03 00:02:19;;;;;;;21.17;11.45;;;;;;;;;;5054628;28;20189;-72
2021/03/03 00:04:45;;;;;;;24.80;10.20;;;;;;;;;;5054858;28;20275;-72
2021/03/03 00:07:11;;;;;;;16.87;9.43;;;;;;;;;;5054673;28;20185;-73
2021/03/03 00:09:36;;;;;;;15.37;9.50;;;;;;;;;;5054412;28;20501;-72
2021/03/03 00:12:02;;;;;;;21.87;10.03;;;;;;;;;;5054426;28;20440;-72
2021/03/03 00:14:28;;;;;;;22.98;11.70;;;;;;;;;;5054310;28;20449;-72
2021/03/03 00:16:55;;;;;;;15.83;9.50;;;;;;;;;;5053863;28;20205;-72
2021/03/03 00:19:21;;;;;;;16.40;11.23;;;;;;;;;;5054115;28;20454;-72
2021/03/03 00:21:47;;;;;;;17.20;9.65;;;;;;;;;;5054706;28;20628;-71
2021/03/03 00:24:13;;;;;;;18.47;9.80;;;;;;;;;;5054198;28;20236;-72
2021/03/03 00:26:39;;;;;;;18.27;9.53;;;;;;;;;;5054059;28;20462;-71
2021/03/03 00:29:05;;;;;;;16.85;9.25;;;;;;;;;;5054687;28;20510;-71
2021/03/03 00:31:31;;;;;;;22.47;9.27;;;;;;;;;;5054638;28;20205;-72
2021/03/03 00:33:58;;;;;;;25.23;10.10;;;;;;;;;;5054153;28;20910;-73
2021/03/03 00:36:23;;;;;;;20.10;9.77;;;;;;;;;;5054169;28;20559;-72
2021/03/03 00:38:49;;;;;;;16.93;9.87;;;;;;;;;;5054134;28;20185;-72
2021/03/03 00:41:15;;;;;;;16.33;7.77;;;;;;;;;;5053236;28;20479;-72
2021/03/03 00:43:41;;;;;;;17.23;9.27;;;;;;;;;;5053638;28;20443;-72
2021/03/03 00:46:08;;;;;;;16.88;9.48;;;;;;;;;;5054131;28;20431;-71
2021/03/03 00:48:34;;;;;;;17.73;9.40;;;;;;;;;;5053924;28;20208;-71
2021/03/03 00:51:01;;;;;;;18.55;9.35;;;;;;;;;;5053921;28;20276;-71
2021/03/03 00:53:27;;;;;;;19.00;9.43;;;;;;;;;;5053587;28;20189;-72
2021/03/03 00:55:53;;;;;;;15.80;9.05;;;;;;;;;;5053226;28;20217;-70
2021/03/03 00:58:19;;;;;;;19.77;9.10;;;;;;;;;;5053006;28;20197;-74
2021/03/03 01:00:45;;;;;;;18.58;10.77;;;;;;;;;;5052913;28;20674;-73
2021/03/03 01:03:11;;;;;;;18.92;9.75;;;;;;;;;;5053375;28;20280;-70
2021/03/03 01:05:39;;;;;;;17.00;9.87;;;;;;;;;;5053439;28;20208;-71
2021/03/03 01:08:06;;;;;;;19.58;10.07;;;;;;;;;;5053259;28;20509;-72
2021/03/03 01:10:32;;;;;;;20.75;9.85;;;;;;;;;;5053483;28;20284;-71
2021/03/03 01:12:58;;;;;;;20.55;10.30;;;;;;;;;;5053160;28;20238;-70
2021/03/03 01:15:24;;;;;;;18.98;10.18;;;;;;;;;;5052942;28;20206;-71
2021/03/03 01:17:52;;;;;;;18.10;9.40;;;;;;;;;;5053505;28;20675;-72
2021/03/03 01:20:18;;;;;;;17.77;9.95;;;;;;;;;;5052977;28;20497;-71
2021/03/03 01:22:44;;;;;;;15.68;9.07;;;;;;;;;;5053172;28;20192;-71
2021/03/03 01:25:11;;;;;;;16.45;10.65;;;;;;;;;;5052928;28;20627;-72
2021/03/03 01:27:37;;;;;;;19.30;10.10;;;;;;;;;;5053219;28;20210;-72
2021/03/03 01:30:03;;;;;;;26.73;10.07;;;;;;;;;;5052907;28;20279;-72
2021/03/03 01:32:29;;;;;;;17.50;9.30;;;;;;;;;;5052069;28;20438;-71
2021/03/03 01:34:55;;;;;;;19.27;10.10;;;;;;;;;;5052673;28;20581;-72
2021/03/03 01:37:21;;;;;;;15.60;9.27;;;;;;;;;;5052816;28;20943;-72
2021/03/03 01:39:47;;;;;;;15.50;9.27;;;;;;;;;;5052606;28;20483;-72
2021/03/03 01:42:14;;;;;;;23.35;10.10;;;;;;;;;;5053253;28;20866;-72
2021/03/03 01:44:40;;;;;;;23.88;10.57;;;;;;;;;;5053035;28;20217;-71
2021/03/03 01:47:06;;;;;;;16.07;9.00;;;;;;;;;;5053003;28;20236;-73
2021/03/03 01:49:32;;;;;;;17.90;10.57;;;;;;;;;;5052723;28;20949;-70
2021/03/03 01:51:58;;;;;;;19.23;9.40;;;;;;;;;;5052452;28;20451;-71
2021/03/03 01:54:24;;;;;;;15.55;8.77;;;;;;;;;;5052563;28;20811;-72
2021/03/03 01:56:49;;;;;;;17.90;8.83;;;;;;;;;;5052045;28;20225;-70
2021/03/03 01:59:16;;;;;;;23.67;9.90;;;;;;;;;;5052808;28;20454;-72
2021/03/03 02:01:42;;;;;;;17.95;10.60;;;;;;;;;;5052367;28;20428;-72
2021/03/03 02:04:08;;;;;;;19.90;9.80;;;;;;;;;;5051951;28;20201;-72
2021/03/03 02:06:36;;;;;;;15.07;9.75;;;;;;;;;;5052462;28;20523;-71
2021/03/03 02:09:03;;;;;;;15.10;9.20;;;;;;;;;;5052925;28;20245;-70
2021/03/03 02:11:34;;;;;;;17.45;9.90;;;;;;;;;;5052237;28;20645;-70
2021/03/03 02:14:02;;;;;;;18.05;9.80;;;;;;;;;;5052462;28;20239;-72
2021/03/03 02:16:29;;;;;;;16.98;7.80;;;;;;;;;;5051854;28;20223;-70
2021/03/03 02:18:57;;;;;;;18.67;8.40;;;;;;;;;;5051604;28;20279;-72
2021/03/03 02:21:28;;;;;;;12.55;8.18;;;;;;;;;;5051664;28;20597;-72
2021/03/03 02:23:56;;;;;;;13.45;8.25;;;;;;;;;;5032016;28;20235;-72
2021/03/03 02:26:33;;;;;;;15.15;8.55;;;;;;;;;;5032293;28;20299;-71
2021/03/03 02:28:59;;;;;;;17.88;9.50;;;;;;;;;;5031826;28;20228;-71
2021/03/03 02:31:25;;;;;;;20.65;8.95;;;;;;;;;;5032211;28;20205;-72
2021/03/03 02:33:51;;;;;;;17.27;9.00;;;;;;;;;;5032004;28;20646;-71
2021/03/03 02:36:17;;;;;;;24.15;8.93;;;;;;;;;;5042546;28;20529;-71
2021/03/03 02:38:44;;;;;;;20.15;10.48;;;;;;;;;;5051742;28;20519;-72
2021/03/03 02:41:11;;;;;;;14.43;7.10;;;;;;;;;;5052308;28;20204;-72
2021/03/03 02:43:38;;;;;;;19.90;10.02;;;;;;;;;;5052457;28;20538;-70
2021/03/03 02:46:04;;;;;;;15.43;8.48;;;;;;;;;;5052331;28;20188;-71
2021/03/03 02:48:30;;;;;;;19.13;10.45;;;;;;;;;;5051223;28;20203;-70
2021/03/03 02:50:56;;;;;;;15.57;9.30;;;;;;;;;;5051671;28;20191;-71
2021/03/03 02:53:22;;;;;;;17.80;9.52;;;;;;;;;;5052080;28;20464;-72
2021/03/03 02:55:48;;;;;;;16.20;9.30;;;;;;;;;;5051437;28;20225;-72
2021/03/03 02:58:14;;;;;;;18.20;8.97;;;;;;;;;;5051560;28;20523;-71
2021/03/03 03:00:42;;;;;;;21.60;8.60;;;;;;;;;;5051442;28;20446;-72
2021/03/03 03:03:16;;;;;;;18.55;9.00;;;;;;;;;;5051865;28;20191;-72
2021/03/03 03:05:44;;;;;;;19.13;9.98;;;;;;;;;;5051678;28;20192;-72
2021/03/03 03:08:13;;;;;;;20.10;9.35;;;;;;;;;;5051674;28;20686;-72
2021/03/03 03:10:39;;;;;;;18.33;9.32;;;;;;;;;;5051957;28;20273;-71
2021/03/03 03:13:06;;;;;;;14.13;8.43;;;;;;;;;;5051826;28;20674;-70
2021/03/03 03:15:32;;;;;;;14.25;8.23;;;;;;;;;;5051517;28;20356;-71
2021/03/03 03:18:01;;;;;;;11.80;8.98;;;;;;;;;;5051474;28;20193;-71
2021/03/03 03:20:30;;;;;;;19.75;9.73;;;;;;;;;;5051451;28;20193;-71
2021/03/03 03:22:56;;;;;;;14.43;9.70;;;;;;;;;;5051635;28;20538;-71
2021/03/03 03:25:22;;;;;;;21.63;11.88;;;;;;;;;;5051484;28;20193;-71
2021/03/03 03:27:48;;;;;;;25.42;11.90;;;;;;;;;;5051237;28;20642;-70
2021/03/03 03:30:15;;;;;;;23.92;11.50;;;;;;;;;;5051868;28;20666;-72
2021/03/03 03:32:41;;;;;;;24.05;10.57;;;;;;;;;;5055051;28;20292;-71
2021/03/03 03:35:09;;;;;;;20.38;12.48;;;;;;;;;;5054937;28;20320;-71
2021/03/03 03:37:36;;;;;;;20.02;11.25;;;;;;;;;;5054918;28;20228;-71
2021/03/03 03:40:02;;;;;;;28.52;14.07;;;;;;;;;;5055014;28;20275;-70
2021/03/03 03:42:29;;;;;;;21.15;10.93;;;;;;;;;;5055138;28;20259;-72
2021/03/03 03:44:56;;;;;;;17.73;11.60;;;;;;;;;;5055236;28;20201;-71
2021/03/03 03:47:22;;;;;;;17.42;10.88;;;;;;;;;;5054730;28;20217;-72
2021/03/03 03:49:49;;;;;;;23.38;11.73;;;;;;;;;;5054309;28;20660;-71
2021/03/03 03:52:16;;;;;;;19.95;12.27;;;;;;;;;;5054423;28;20239;-71
2021/03/03 03:54:47;;;;;;;14.27;8.85;;;;;;;;;;5054982;28;20211;-71
2021/03/03 03:57:13;;;;;;;18.08;9.88;;;;;;;;;;5054938;28;20296;-71
2021/03/03 03:59:39;;;;;;;14.63;9.00;;;;;;;;;;5055077;28;20676;-71
2021/03/03 04:02:05;;;;;;;15.87;9.50;;;;;;;;;;5054584;28;20436;-71
2021/03/03 04:04:31;;;;;;;15.13;9.43;;;;;;;;;;5054690;28;20436;-70
2021/03/03 04:06:57;;;;;;;18.50;9.47;;;;;;;;;;5054247;28;20476;-71
2021/03/03 04:09:23;;;;;;;17.80;8.73;;;;;;;;;;5054182;28;20831;-71
2021/03/03 04:11:49;;;;;;;14.88;10.45;;;;;;;;;;5054279;28;20449;-72
2021/03/03 04:14:15;;;;;;;18.00;10.57;;;;;;;;;;5054613;28;20220;-72
2021/03/03 04:16:41;;;;;;;15.43;9.10;;;;;;;;;;5054327;28;20531;-71
2021/03/03 04:19:07;;;;;;;16.13;10.27;;;;;;;;;;5054108;28;20650;-70
2021/03/03 04:21:33;;;;;;;15.90;8.97;;;;;;;;;;5054071;28;20437;-72
2021/03/03 04:23:59;;;;;;;16.93;8.87;;;;;;;;;;5053940;28;20442;-72
2021/03/03 04:26:26;;;;;;;13.00;8.30;;;;;;;;;;5054108;28;20469;-70
2021/03/03 04:28:51;;;;;;;20.27;10.57;;;;;;;;;;5054251;28;20894;-70
2021/03/03 04:31:17;;;;;;;21.53;9.77;;;;;;;;;;5054285;28;20211;-71
2021/03/03 04:33:43;;;;;;;16.33;8.67;;;;;;;;;;5053875;28;21323;-72
2021/03/03 04:36:09;;;;;;;16.70;9.97;;;;;;;;;;5053838;28;20545;-72
2021/03/03 04:38:35;;;;;;;17.57;11.10;;;;;;;;;;5054065;28;20452;-70
2021/03/03 04:41:01;;;;;;;19.03;10.70;;;;;;;;;;5054081;28;20438;-71
2021/03/03 04:43:28;;;;;;;21.27;10.80;;;;;;;;;;5053277;28;20515;-72
2021/03/03 04:45:54;;;;;;;14.35;9.43;;;;;;;;;;5054150;28;20758;-70
2021/03/03 04:48:20;;;;;;;19.63;9.50;;;;;;;;;;5054228;28;20228;-71
2021/03/03 04:50:46;;;;;;;20.25;10.02;;;;;;;;;;5053639;28;20812;-70
2021/03/03 04:53:11;;;;;;;14.80;9.03;;;;;;;;;;5053829;28;20283;-71
2021/03/03 04:55:37;;;;;;;23.67;10.70;;;;;;;;;;5053687;28;20443;-72
2021/03/03 04:58:03;;;;;;;21.27;11.70;;;;;;;;;;5053151;28;20534;-71
2021/03/03 05:00:30;;;;;;;20.10;10.85;;;;;;;;;;5053487;28;20541;-72
2021/03/03 05:02:56;;;;;;;22.42;13.07;;;;;;;;;;5053491;28;20193;-70
2021/03/03 05:05:22;;;;;;;26.00;13.18;;;;;;;;;;5053232;28;20238;-71
2021/03/03 05:07:48;;;;;;;23.43;13.97;;;;;;;;;;5053331;28;20189;-71
2021/03/03 05:10:14;;;;;;;19.77;12.15;;;;;;;;;;5053505;28;20450;-71
2021/03/03 05:12:40;;;;;;;25.88;13.25;;;;;;;;;;5053449;28;20219;-71
2021/03/03 05:15:07;;;;;;;28.50;12.70;;;;;;;;;;5053662;28;20193;-70
2021/03/03 05:17:33;;;;;;;27.58;14.18;;;;;;;;;;5053348;28;20506;-72
2021/03/03 05:19:59;;;;;;;29.75;14.60;;;;;;;;;;5053575;28;20197;-72
2021/03/03 05:22:25;;;;;;;26.87;12.07;;;;;;;;;;5053040;28;20239;-71
2021/03/03 05:24:51;;;;;;;23.58;12.15;;;;;;;;;;5053030;28;20446;-72
2021/03/03 05:27:17;;;;;;;23.30;12.77;;;;;;;;;;5053096;28;20343;-70
2021/03/03 05:29:43;;;;;;;20.33;12.30;;;;;;;;;;5053411;28;20462;-71
2021/03/03 05:32:09;;;;;;;22.77;12.90;;;;;;;;;;5052455;28;20452;-72
2021/03/03 05:34:36;;;;;;;23.87;12.03;;;;;;;;;;5052423;28;20281;-71
2021/03/03 05:37:02;;;;;;;18.40;11.75;;;;;;;;;;5052732;28;20559;-72
2021/03/03 05:39:28;;;;;;;26.55;12.65;;;;;;;;;;5052788;28;20292;-70
2021/03/03 05:41:57;;;;;;;19.77;12.32;;;;;;;;;;5053133;28;20676;-70
2021/03/03 05:44:23;;;;;;;19.40;11.90;;;;;;;;;;5052735;28;20188;-71
2021/03/03 05:46:50;;;;;;;33.22;14.07;;;;;;;;;;5052768;28;20307;-71
2021/03/03 05:49:16;;;;;;;21.17;12.43;;;;;;;;;;5052229;28;20283;-72
2021/03/03 05:51:43;;;;;;;18.90;11.02;;;;;;;;;;5052311;28;20602;-70
2021/03/03 05:54:10;;;;;;;21.95;10.07;;;;;;;;;;5051612;28;20706;-73
2021/03/03 05:56:36;;;;;;;19.98;11.48;;;;;;;;;;5052453;28;20217;-71
2021/03/03 05:59:02;;;;;;;16.73;11.93;;;;;;;;;;5052075;28;20201;-71
2021/03/03 06:01:28;;;;;;;29.03;14.30;;;;;;;;;;5052443;28;20209;-71
2021/03/03 06:03:53;;;;;;;23.23;14.10;;;;;;;;;;5052289;28;20829;-71
2021/03/03 06:06:20;;;;;;;33.13;14.27;;;;;;;;;;5052191;28;20436;-71
2021/03/03 06:08:48;;;;;;;25.50;13.20;;;;;;;;;;5052011;28;20448;-72
2021/03/03 06:11:14;;;;;;;24.75;13.40;;;;;;;;;;5052521;28;20192;-70
2021/03/03 06:13:40;;;;;;;26.67;11.93;;;;;;;;;;5052083;28;20209;-72
2021/03/03 06:16:06;;;;;;;28.80;12.77;;;;;;;;;;5052413;28;20213;-70
2021/03/03 06:18:32;;;;;;;22.33;12.32;;;;;;;;;;5052032;28;20432;-72
2021/03/03 06:20:58;;;;;;;29.42;13.95;;;;;;;;;;5052113;28;20264;-70
2021/03/03 06:23:25;;;;;;;20.33;12.57;;;;;;;;;;5052324;28;20658;-72
2021/03/03 06:26:08;;;;;;;23.38;13.40;;;;;;;;;;5051565;28;20451;-71
2021/03/03 06:28:35;;;;;;;21.90;12.77;;;;;;;;;;5032242;28;20181;-71
2021/03/03 06:31:21;;;;;;;20.88;11.77;;;;;;;;;;5040173;28;20189;-71
2021/03/03 06:33:47;;;;;;;21.90;11.85;;;;;;;;;;5044454;28;20212;-72
2021/03/03 06:36:19;;;;;;;22.80;13.15;;;;;;;;;;5052085;28;20209;-72
2021/03/03 06:38:45;;;;;;;19.70;11.10;;;;;;;;;;5052040;28;20189;-71
2021/03/03 06:41:11;;;;;;;23.90;12.43;;;;;;;;;;5052104;28;20661;-71
2021/03/03 06:43:38;;;;;;;31.13;13.48;;;;;;;;;;5051880;28;20452;-71
2021/03/03 06:46:15;;;;;;;26.90;17.05;;;;;;;;;;5052006;28;20673;-72
2021/03/03 06:48:42;;;;;;;29.83;18.05;;;;;;;;;;5051838;28;20208;-72
2021/03/03 06:51:25;;;;;;;27.83;14.25;;;;;;;;;;5051405;28;20197;-72
2021/03/03 06:53:52;;;;;;;25.33;14.20;;;;;;;;;;5051533;28;20224;-70
2021/03/03 06:56:35;;;;;;;30.35;14.48;;;;;;;;;;5051645;28;20698;-72
2021/03/03 06:59:11;;;;;;;29.80;16.77;;;;;;;;;;5051895;28;20200;-72
2021/03/03 07:01:37;;;;;;;30.63;15.00;;;;;;;;;;5051308;28;20292;-71
2021/03/03 07:04:04;;;;;;;30.75;14.82;;;;;;;;;;5051152;28;20205;-72
2021/03/03 07:06:32;;;;;;;34.25;14.50;;;;;;;;;;5054851;28;20621;-71
2021/03/03 07:08:59;;;;;;;25.02;13.02;;;;;;;;;;5055839;28;20193;-71
2021/03/03 07:11:27;;;;;;;27.88;14.48;;;;;;;;;;5055413;28;20678;-71
2021/03/03 07:13:53;;;;;;;31.52;18.20;;;;;;;;;;5055110;28;20205;-72
2021/03/03 07:16:20;;;;;;;32.00;17.10;;;;;;;;;;5055393;28;20301;-72
2021/03/03 07:18:46;;;;;;;34.85;17.70;;;;;;;;;;5055601;28;20632;-72
2021/03/03 07:21:12;;;;;;;32.20;19.20;;;;;;;;;;5055930;28;20236;-71
2021/03/03 07:23:46;;;;;;;27.88;16.58;;;;;;;;;;5055598;28;20922;-72
2021/03/03 07:26:13;;;;;;;25.25;15.05;;;;;;;;;;5055695;28;20194;-71
2021/03/03 07:28:40;;;;;;;29.40;16.45;;;;;;;;;;5055977;28;20639;-70
2021/03/03 07:31:06;;;;;;;24.90;16.40;;;;;;;;;;5054170;28;20228;-72
2021/03/03 07:33:34;;;;;;;29.20;16.02;;;;;;;;;;5054926;28;20232;-72
2021/03/03 07:36:00;;;;;;;26.95;14.88;;;;;;;;;;5054645;28;20267;-70
2021/03/03 07:38:30;;;;;;;21.83;14.63;;;;;;;;;;5054864;28;20189;-71
2021/03/03 07:40:57;;;;;;;25.98;12.35;;;;;;;;;;5054727;28;20263;-70
2021/03/03 07:43:24;;;;;;;25.63;13.60;;;;;;;;;;5055611;28;20225;-72
2021/03/03 07:45:51;;;;;;;21.30;12.00;;;;;;;;;;5054926;28;20182;-72
2021/03/03 07:48:20;;;;;;;23.55;13.18;;;;;;;;;;5054731;28;20205;-71
2021/03/03 07:50:47;;;;;;;21.38;12.73;;;;;;;;;;5055443;28;20190;-73
2021/03/03 07:53:14;;;;;;;23.13;12.50;;;;;;;;;;5054445;28;20197;-72
2021/03/03 07:55:40;;;;;;;24.13;11.60;;;;;;;;;;5055329;28;20956;-72
2021/03/03 07:58:07;;;;;;;21.67;11.30;;;;;;;;;;5054913;28;20194;-72
2021/03/03 08:00:34;;;;;;;30.58;14.20;;;;;;;;;;5055465;28;20193;-70
2021/03/03 08:03:00;;;;;;;28.55;13.98;;;;;;;;;;5054306;28;20246;-72
2021/03/03 08:05:27;;;;;;;20.70;12.18;;;;;;;;;;5054114;28;20189;-71
2021/03/03 08:08:08;;;;;;;34.78;13.82;;;;;;;;;;5054750;28;20224;-71
2021/03/03 08:10:38;;;;;;;30.95;16.05;;;;;;;;;;5054391;28;20237;-71
2021/03/03 08:13:06;;;;;;;21.45;12.60;;;;;;;;;;5054005;28;20201;-72
2021/03/03 08:15:50;;;;;;;25.27;14.45;;;;;;;;;;5054303;28;20201;-70
2021/03/03 08:18:20;;;;;;;24.00;12.35;;;;;;;;;;5053811;28;20284;-71
2021/03/03 08:20:48;;;;;;;25.23;14.40;;;;;;;;;;5054096;28;20323;-72
2021/03/03 08:23:29;;;;;;;29.20;14.20;;;;;;;;;;5053919;28;20228;-70
2021/03/03 08:25:56;;;;;;;26.77;13.80;;;;;;;;;;5054058;28;20205;-71
2021/03/03 08:28:23;;;;;;;20.33;13.90;;;;;;;;;;5053350;28;20197;-72
2021/03/03 08:31:21;;;;;;;22.17;11.48;;;;;;;;;;5053871;28;20489;-73
2021/03/03 08:33:55;;;;;;;21.65;12.00;;;;;;;;;;5034157;28;20198;-73
2021/03/03 08:36:36;;;;;;;26.60;12.32;;;;;;;;;;5045730;28;20255;-72
2021/03/03 08:39:17;;;;;;;29.23;14.25;;;;;;;;;;5054219;28;20208;-71
2021/03/03 08:41:45;;;;;;;16.70;10.95;;;;;;;;;;5053504;28;20292;-71
2021/03/03 08:44:11;;;;;;;31.73;13.38;;;;;;;;;;5053710;28;20331;-71
2021/03/03 08:46:45;;;;;;;32.53;14.98;;;;;;;;;;5053401;28;20202;-71
2021/03/03 08:49:25;;;;;;;21.33;12.73;;;;;;;;;;5053529;28;20213;-71
2021/03/03 08:52:05;;;;;;;29.63;14.35;;;;;;;;;;5054005;28;20682;-71
2021/03/03 08:54:41;;;;;;;37.63;14.65;;;;;;;;;;5053480;28;20295;-71
2021/03/03 08:57:22;;;;;;;32.50;14.30;;;;;;;;;;5052865;28;20682;-70
2021/03/03 08:59:49;;;;;;;31.02;14.85;;;;;;;;;;5053021;28;20212;-71
2021/03/03 09:02:16;;;;;;;34.85;16.55;;;;;;;;;;5053116;28;20659;-71
2021/03/03 09:04:43;;;;;;;25.73;11.57;;;;;;;;;;5053495;28;20240;-71
2021/03/03 09:07:13;;;;;;;26.35;11.43;;;;;;;;;;5052528;28;20202;-71
2021/03/03 09:09:41;;;;;;;26.45;14.43;;;;;;;;;;5053064;28;20244;-71
2021/03/03 09:12:08;;;;;;;24.98;14.80;;;;;;;;;;5052801;28;20204;-71
2021/03/03 09:14:35;;;;;;;30.08;13.07;;;;;;;;;;5052647;28;20647;-71
2021/03/03 09:17:03;;;;;;;26.05;12.85;;;;;;;;;;5053084;28;20265;-70
2021/03/03 09:19:29;;;;;;;29.55;12.88;;;;;;;;;;5053123;28;20241;-71
2021/03/03 09:21:56;;;;;;;21.38;11.85;;;;;;;;;;5053363;28;20239;-70
2021/03/03 09:24:22;;;;;;;23.92;12.45;;;;;;;;;;5052710;28;20211;-72
2021/03/03 09:26:48;;;;;;;27.08;12.80;;;;;;;;;;5052880;28;20203;-70
2021/03/03 09:29:24;;;;;;;21.60;11.70;;;;;;;;;;5051408;28;20215;-71
2021/03/03 09:31:50;;;;;;;26.27;11.75;;;;;;;;;;5052869;28;20698;-72
2021/03/03 09:34:18;;;;;;;27.27;12.20;;;;;;;;;;5052838;28;20235;-70
2021/03/03 09:36:52;;;;;;;16.65;10.20;;;;;;;;;;5052624;28;20264;-72
2021/03/03 09:39:21;;;;;;;26.52;10.05;;;;;;;;;;5052589;28;20208;-72
2021/03/03 09:41:55;;;;;;;20.08;10.48;;;;;;;;;;5052489;28;20266;-71
2021/03/03 09:44:22;;;;;;;19.55;11.32;;;;;;;;;;5052572;28;20291;-70
2021/03/03 09:46:52;;;;;;;26.98;12.30;;;;;;;;;;5052319;28;20290;-72
2021/03/03 09:49:26;;;;;;;25.63;12.00;;;;;;;;;;5052885;28;20658;-71
2021/03/03 09:51:52;;;;;;;19.80;11.85;;;;;;;;;;5052184;28;20204;-70
2021/03/03 09:54:25;;;;;;;17.55;10.00;;;;;;;;;;5052726;28;20205;-71
2021/03/03 09:56:51;;;;;;;20.30;10.48;;;;;;;;;;5052168;28;20667;-71
2021/03/03 09:59:18;;;;;;;18.85;8.98;;;;;;;;;;5052748;28;20650;-70
2021/03/03 10:01:44;;;;;;;24.38;11.18;;;;;;;;;;5052392;28;20194;-71
2021/03/03 10:04:10;;;;;;;24.52;10.75;;;;;;;;;;5051958;28;20181;-71
2021/03/03 10:06:37;;;;;;;22.88;12.70;;;;;;;;;;5052016;28;20197;-72
2021/03/03 10:09:04;;;;;;;17.85;10.70;;;;;;;;;;5052616;28;20201;-71
2021/03/03 10:11:30;;;;;;;22.05;11.38;;;;;;;;;;5051909;28;20247;-71
2021/03/03 10:14:03;;;;;;;27.05;10.80;;;;;;;;;;5052821;28;20232;-70
2021/03/03 10:16:29;;;;;;;20.63;11.98;;;;;;;;;;5051565;28;20205;-71
2021/03/03 10:19:02;;;;;;;22.40;11.05;;;;;;;;;;5052321;28;20208;-72
2021/03/03 10:21:28;;;;;;;19.75;10.45;;;;;;;;;;5051858;28;20215;-71
2021/03/03 10:23:55;;;;;;;26.88;10.15;;;;;;;;;;5051704;28;20201;-73
2021/03/03 10:26:40;;;;;;;28.23;11.55;;;;;;;;;;5051598;28;20615;-70
2021/03/03 10:29:06;;;;;;;23.70;11.77;;;;;;;;;;5051625;28;20192;-70
2021/03/03 10:31:32;;;;;;;15.95;9.43;;;;;;;;;;5051788;28;20286;-70
2021/03/03 10:34:08;;;;;;;21.92;10.75;;;;;;;;;;5051839;28;20203;-71
2021/03/03 10:36:38;;;;;;;22.02;10.60;;;;;;;;;;5051607;28;20222;-71
2021/03/03 10:39:05;;;;;;;22.10;10.43;;;;;;;;;;5051286;28;20541;-71
2021/03/03 10:41:33;;;;;;;27.63;12.63;;;;;;;;;;5050569;28;20250;-69
2021/03/03 10:43:59;;;;;;;16.63;9.02;;;;;;;;;;5050740;28;20189;-71
2021/03/03 10:46:25;;;;;;;18.70;9.90;;;;;;;;;;5051848;28;20564;-71
2021/03/03 10:48:52;;;;;;;19.33;10.27;;;;;;;;;;5051792;28;20552;-72
2021/03/03 10:51:20;;;;;;;15.98;9.90;;;;;;;;;;5051419;28;20653;-71
2021/03/03 10:53:47;;;;;;;19.35;10.02;;;;;;;;;;5051519;28;20226;-71
2021/03/03 10:56:21;;;;;;;17.77;8.82;;;;;;;;;;5051044;28;20202;-71
2021/03/03 10:58:48;;;;;;;17.80;10.13;;;;;;;;;;5051729;28;20207;-71
2021/03/03 11:01:14;;;;;;;21.00;11.25;;;;;;;;;;5051842;28;20215;-71
2021/03/03 11:03:54;;;;;;;17.58;8.27;;;;;;;;;;5051479;28;20602;-70
2021/03/03 11:06:20;;;;;;;21.90;11.65;;;;;;;;;;5051425;28;20203;-71
2021/03/03 11:08:46;;;;;;;16.80;9.52;;;;;;;;;;5051826;28;20655;-70
2021/03/03 11:11:13;;;;;;;24.70;10.63;;;;;;;;;;5051626;28;20218;-71
2021/03/03 11:13:39;;;;;;;15.50;9.68;;;;;;;;;;5051127;28;20199;-70
2021/03/03 11:16:06;;;;;;;17.38;9.77;;;;;;;;;;5050971;28;20204;-70
2021/03/03 11:18:32;;;;;;;18.75;9.30;;;;;;;;;;5051397;28;20193;-70
2021/03/03 11:20:59;;;;;;;17.48;11.15;;;;;;;;;;5051293;28;20210;-70
2021/03/03 11:23:25;;;;;;;15.45;9.90;;;;;;;;;;5051483;28;20601;-71
2021/03/03 11:25:51;;;;;;;22.42;9.82;;;;;;;;;;5050844;28;20190;-71
2021/03/03 11:28:17;;;;;;;15.73;8.38;;;;;;;;;;5051018;28;20227;-71
2021/03/03 11:30:43;;;;;;;17.05;9.05;;;;;;;;;;5051383;28;20209;-72
2021/03/03 11:33:10;;;;;;;17.63;9.02;;;;;;;;;;5051136;28;20238;-71
2021/03/03 11:35:37;;;;;;;15.63;8.68;;;;;;;;;;5051029;28;20322;-71
2021/03/03 11:38:03;;;;;;;15.25;10.48;;;;;;;;;;5051193;28;20654;-71
2021/03/03 11:40:29;;;;;;;20.85;10.05;;;;;;;;;;5050873;28;20647;-70
2021/03/03 11:42:55;;;;;;;13.43;8.70;;;;;;;;;;5051337;28;20284;-71
2021/03/03 11:45:21;;;;;;;15.77;9.20;;;;;;;;;;5051135;28;20215;-71
2021/03/03 11:47:48;;;;;;;16.13;9.93;;;;;;;;;;5051172;28;20244;-71
2021/03/03 11:50:15;;;;;;;29.02;13.95;;;;;;;;;;5051002;28;20239;-72
2021/03/03 11:52:41;;;;;;;22.73;10.55;;;;;;;;;;5053224;28;20235;-72
2021/03/03 11:55:08;;;;;;;19.10;9.65;;;;;;;;;;5054908;28;20196;-73
2021/03/03 11:57:34;;;;;;;17.45;8.40;;;;;;;;;;5054602;28;20227;-71
2021/03/03 12:00:00;;;;;;;20.20;8.20;;;;;;;;;;5054643;28;20220;-72
2021/03/03 12:02:26;;;;;;;19.58;8.18;;;;;;;;;;5055325;28;20663;-71
2021/03/03 12:04:52;;;;;;;19.60;9.35;;;;;;;;;;5054760;28;20231;-71
2021/03/03 12:07:19;;;;;;;17.90;8.37;;;;;;;;;;5054568;28;20566;-72
2021/03/03 12:09:45;;;;;;;15.02;7.63;;;;;;;;;;5054590;28;20498;-71
2021/03/03 12:12:11;;;;;;;17.63;8.35;;;;;;;;;;5054310;28;20192;-70
2021/03/03 12:14:37;;;;;;;15.23;9.20;;;;;;;;;;5054188;28;20405;-71
2021/03/03 12:17:03;;;;;;;17.52;8.63;;;;;;;;;;5053164;28;20217;-72
2021/03/03 12:19:29;;;;;;;12.65;7.32;;;;;;;;;;5053900;28;20193;-72
2021/03/03 12:21:55;;;;;;;17.98;7.82;;;;;;;;;;5053980;28;20205;-72
2021/03/03 12:24:22;;;;;;;12.25;8.27;;;;;;;;;;5053937;28;20239;-73
2021/03/03 12:26:49;;;;;;;15.32;6.85;;;;;;;;;;5053452;28;20212;-71
2021/03/03 12:29:15;;;;;;;12.20;7.20;;;;;;;;;;5053974;28;20212;-73
2021/03/03 12:31:41;;;;;;;18.58;8.05;;;;;;;;;;5053948;28;20212;-72
2021/03/03 12:34:07;;;;;;;13.35;7.20;;;;;;;;;;5053729;28;20252;-70
2021/03/03 12:36:33;;;;;;;12.85;7.72;;;;;;;;;;5053672;28;20743;-72
2021/03/03 12:38:59;;;;;;;17.08;6.80;;;;;;;;;;5053588;28;20547;-70
2021/03/03 12:41:26;;;;;;;19.50;7.70;;;;;;;;;;5053371;28;20197;-72
2021/03/03 12:43:53;;;;;;;14.13;7.93;;;;;;;;;;5053530;28;20611;-71
2021/03/03 12:46:19;;;;;;;18.30;8.73;;;;;;;;;;5053857;28;20206;-72
2021/03/03 12:48:45;;;;;;;14.38;8.13;;;;;;;;;;5053722;28;20228;-69
2021/03/03 12:51:11;;;;;;;16.98;8.20;;;;;;;;;;5053600;28;20201;-71
2021/03/03 12:53:37;;;;;;;9.40;6.28;;;;;;;;;;5053338;28;20205;-72
2021/03/03 12:56:04;;;;;;;15.15;8.77;;;;;;;;;;5053656;28;20206;-72
2021/03/03 12:58:31;;;;;;;10.90;6.63;;;;;;;;;;5053312;28;20676;-70
2021/03/03 13:00:57;;;;;;;14.55;7.00;;;;;;;;;;5053276;28;20707;-71
2021/03/03 13:03:23;;;;;;;15.25;6.43;;;;;;;;;;5053366;28;20292;-71
2021/03/03 13:05:49;;;;;;;13.20;7.67;;;;;;;;;;5053032;28;20280;-73
2021/03/03 13:08:15;;;;;;;12.32;7.50;;;;;;;;;;5053237;28;20898;-71
2021/03/03 13:10:41;;;;;;;17.73;7.40;;;;;;;;;;5053074;28;20212;-70
2021/03/03 13:13:07;;;;;;;15.98;7.13;;;;;;;;;;5053656;28;20577;-72
2021/03/03 13:15:34;;;;;;;12.48;7.80;;;;;;;;;;5053000;28;20190;-71
2021/03/03 13:18:00;;;;;;;13.50;7.68;;;;;;;;;;5052823;28;20317;-69
2021/03/03 13:20:26;;;;;;;15.70;8.32;;;;;;;;;;5052946;28;20284;-73
2021/03/03 13:22:52;;;;;;;22.15;10.15;;;;;;;;;;5055042;28;20287;-71
2021/03/03 13:25:19;;;;;;;14.55;7.20;;;;;;;;;;5050789;28;20289;-69
2021/03/03 13:27:45;;;;;;;13.65;6.40;;;;;;;;;;5047614;28;74225;-69
2021/03/03 13:30:11;;;;;;;14.85;7.25;;;;;;;;;;5023934;28;20323;-69
2021/03/03 13:32:39;;;;;;;12.00;6.60;;;;;;;;;;5052118;28;20199;-70
2021/03/03 13:35:06;;;;;;;12.85;7.80;;;;;;;;;;5052427;28;20230;-71
2021/03/03 13:37:32;;;;;;;11.13;6.75;;;;;;;;;;5052387;28;20215;-70
2021/03/03 13:39:58;;;;;;;10.50;6.63;;;;;;;;;;5029037;28;97790;-70
2021/03/03 13:42:24;;;;;;;17.53;8.30;;;;;;;;;;5052267;28;20453;-69
2021/03/03 13:44:50;;;;;;;12.93;7.10;;;;;;;;;;5052173;28;20455;-74
2021/03/03 13:47:16;;;;;;;9.77;6.55;;;;;;;;;;5052589;28;20202;-70
2021/03/03 13:49:43;;;;;;;12.73;6.97;;;;;;;;;;5052157;28;20210;-70
2021/03/03 13:52:09;;;;;;;10.43;6.70;;;;;;;;;;5052779;28;20292;-70
2021/03/03 13:54:35;;;;;;;16.30;8.10;;;;;;;;;;5051938;28;20206;-71
2021/03/03 13:57:02;;;;;;;14.57;8.73;;;;;;;;;;5052491;28;20579;-72
2021/03/03 13:59:27;;;;;;;14.50;8.25;;;;;;;;;;5052163;28;20266;-71
2021/03/03 14:01:54;;;;;;;17.50;8.40;;;;;;;;;;5052365;28;20189;-71
2021/03/03 14:04:20;;;;;;;16.38;7.82;;;;;;;;;;5051989;28;20471;-73
2021/03/03 14:06:47;;;;;;;11.05;6.00;;;;;;;;;;5051872;28;20212;-70
2021/03/03 14:09:14;;;;;;;12.82;8.45;;;;;;;;;;5068202;28;20628;-71
2021/03/03 14:11:40;;;;;;;14.93;8.02;;;;;;;;;;5071601;28;20216;-69
2021/03/03 14:14:06;;;;;;;14.95;7.20;;;;;;;;;;5071527;28;20338;-71
2021/03/03 14:16:32;;;;;;;14.98;7.47;;;;;;;;;;5071260;28;20208;-70
2021/03/03 14:18:58;;;;;;;11.60;7.03;;;;;;;;;;5071849;28;20633;-70
2021/03/03 14:21:25;;;;;;;12.50;7.05;;;;;;;;;;5071482;28;20254;-70
2021/03/03 14:23:52;;;;;;;17.80;8.43;;;;;;;;;;5065708;28;20205;-71
2021/03/03 14:26:18;;;;;;;10.52;6.47;;;;;;;;;;5051571;28;20663;-71